Time;durP1;ratioP1;P1;durP2;ratioP2;P2;SDS_P1;SDS_P2;PMS_P1;PMS_P2;Temp;Humidity;BMP_temperature;BMP_pressure;BME280_temperature;BME280_humidity;BME280_pressure;Samples;Min_cycle;Max_cycle;Signal;HPM_P1;HPM_P2
2022/01/18 00:02:25;;;;;;;1.50;1.40;;;;;;;;;;5073485;28;20633;-88
2022/01/18 00:04:53;;;;;;;1.60;1.50;;;;;;;;;;5073633;28;20228;-88
2022/01/18 00:07:20;;;;;;;2.07;1.40;;;;;;;;;;5073499;28;20684;-88
2022/01/18 00:09:49;;;;;;;1.63;1.53;;;;;;;;;;5072987;28;20647;-88
2022/01/18 00:12:41;;;;;;;1.27;1.17;;;;;;;;;;5072922;28;20705;-89
2022/01/18 00:15:31;;;;;;;1.60;1.50;;;;;;;;;;5072903;28;20582;-89
2022/01/18 00:18:18;;;;;;;1.73;1.63;;;;;;;;;;5072913;28;20192;-90
2022/01/18 00:23:30;;;;;;;1.57;1.47;;;;;;;;;;5072644;28;20203;-89
2022/01/18 00:26:05;;;;;;;1.83;1.73;;;;;;;;;;5072697;28;20197;-90
2022/01/18 00:28:33;;;;;;;1.93;1.47;;;;;;;;;;5073145;28;20288;-89
2022/01/18 00:34:04;;;;;;;1.63;1.53;;;;;;;;;;5011537;28;20222;-88
2022/01/18 00:36:41;;;;;;;2.27;1.70;;;;;;;;;;5061419;28;20267;-90
2022/01/18 00:39:12;;;;;;;1.90;1.80;;;;;;;;;;5076189;28;20200;-89
2022/01/18 00:41:41;;;;;;;1.53;1.43;;;;;;;;;;5076798;28;20311;-90
2022/01/18 00:44:09;;;;;;;2.07;1.97;;;;;;;;;;5076666;28;20666;-89
2022/01/18 00:46:37;;;;;;;1.90;1.80;;;;;;;;;;5077450;28;20213;-90
2022/01/18 00:49:13;;;;;;;1.50;1.40;;;;;;;;;;5076375;28;20203;-90
2022/01/18 00:51:41;;;;;;;2.40;2.20;;;;;;;;;;5076868;28;20204;-90
2022/01/18 00:54:10;;;;;;;2.60;2.40;;;;;;;;;;5076800;28;20208;-89
2022/01/18 00:56:41;;;;;;;2.17;2.03;;;;;;;;;;5077297;28;20662;-89
2022/01/18 00:59:12;;;;;;;2.67;2.47;;;;;;;;;;5076721;28;20246;-88
2022/01/18 01:01:40;;;;;;;4.30;2.03;;;;;;;;;;5076370;28;20220;-90
2022/01/18 01:04:07;;;;;;;2.03;1.83;;;;;;;;;;5076276;28;20680;-90
2022/01/18 01:09:56;;;;;;;1.97;1.80;;;;;;;;;;5075983;28;20228;-90
2022/01/18 01:12:27;;;;;;;1.90;1.80;;;;;;;;;;5076237;28;20193;-90
2022/01/18 01:15:03;;;;;;;3.37;2.60;;;;;;;;;;5076230;28;20225;-91
2022/01/18 01:17:44;;;;;;;2.93;2.60;;;;;;;;;;5075942;28;20288;-90
2022/01/18 01:42:58;;;;;;;14.77;3.50;;;;;;;;;;5076031;28;20203;-90
2022/01/18 01:45:35;;;;;;;2.70;2.40;;;;;;;;;;5075929;28;20273;-90
2022/01/18 01:48:05;;;;;;;1.93;1.83;;;;;;;;;;5075658;28;20633;-90
2022/01/18 01:50:46;;;;;;;2.30;2.13;;;;;;;;;;5075686;28;20204;-89
2022/01/18 01:53:15;;;;;;;1.70;1.50;;;;;;;;;;5076214;28;20196;-88
2022/01/18 01:55:42;;;;;;;2.13;2.00;;;;;;;;;;5077331;28;20197;-88
2022/01/18 01:58:10;;;;;;;2.67;2.17;;;;;;;;;;5078019;28;20201;-90
2022/01/18 02:00:44;;;;;;;1.73;1.63;;;;;;;;;;5076436;28;20716;-88
2022/01/18 02:03:13;;;;;;;2.30;1.70;;;;;;;;;;5075617;28;20628;-89
2022/01/18 02:05:40;;;;;;;2.10;1.60;;;;;;;;;;5075121;28;20199;-88
2022/01/18 02:08:11;;;;;;;5.10;2.10;;;;;;;;;;5075220;28;20189;-88
2022/01/18 02:10:40;;;;;;;2.27;1.83;;;;;;;;;;5074926;28;20319;-89
2022/01/18 02:13:12;;;;;;;2.30;1.60;;;;;;;;;;5075229;28;20684;-89
2022/01/18 02:15:46;;;;;;;2.40;2.20;;;;;;;;;;5075064;28;20200;-89
2022/01/18 02:23:45;;;;;;;2.40;2.10;;;;;;;;;;5075082;28;20267;-88
2022/01/18 02:26:22;;;;;;;2.40;2.17;;;;;;;;;;5074691;28;20201;-89
2022/01/18 02:29:02;;;;;;;2.47;2.27;;;;;;;;;;5074913;28;20208;-89
2022/01/18 02:31:33;;;;;;;2.63;2.07;;;;;;;;;;5074492;28;20250;-89
2022/01/18 02:34:03;;;;;;;4.47;3.37;;;;;;;;;;5074840;28;20199;-89
2022/01/18 02:36:33;;;;;;;3.63;2.70;;;;;;;;;;5074240;28;20189;-89
2022/01/18 02:39:00;;;;;;;2.27;1.87;;;;;;;;;;5074543;28;20288;-88
2022/01/18 02:41:30;;;;;;;2.00;1.90;;;;;;;;;;5074541;28;20307;-89
2022/01/18 02:43:59;;;;;;;3.00;2.37;;;;;;;;;;5074806;28;20197;-89
2022/01/18 02:46:27;;;;;;;2.10;1.83;;;;;;;;;;5074379;28;20193;-88
2022/01/18 02:48:55;;;;;;;2.23;2.03;;;;;;;;;;5074527;28;20276;-88
2022/01/18 02:51:24;;;;;;;2.00;1.90;;;;;;;;;;5074500;28;20662;-88
2022/01/18 02:54:00;;;;;;;2.33;2.13;;;;;;;;;;5074343;28;20278;-89
2022/01/18 02:56:29;;;;;;;5.23;1.80;;;;;;;;;;5074332;28;20197;-89
2022/01/18 02:59:07;;;;;;;3.57;2.03;;;;;;;;;;5074175;28;20280;-88
2022/01/18 03:04:18;;;;;;;2.37;2.17;;;;;;;;;;5074280;28;20224;-88
2022/01/18 03:06:52;;;;;;;3.00;2.23;;;;;;;;;;5074184;28;20263;-88
2022/01/18 03:09:21;;;;;;;2.27;2.07;;;;;;;;;;5073840;28;20303;-88
2022/01/18 03:11:48;;;;;;;2.07;1.87;;;;;;;;;;5074092;28;20284;-88
2022/01/18 03:14:22;;;;;;;2.23;1.63;;;;;;;;;;5074098;28;20223;-87
2022/01/18 03:16:53;;;;;;;2.83;2.07;;;;;;;;;;5073708;28;20197;-88
2022/01/18 03:19:20;;;;;;;3.47;1.93;;;;;;;;;;5073612;28;20251;-88
2022/01/18 03:21:49;;;;;;;1.80;1.70;;;;;;;;;;5073603;28;20224;-88
2022/01/18 03:24:42;;;;;;;1.73;1.63;;;;;;;;;;5073630;28;20201;-88
2022/01/18 03:29:57;;;;;;;1.60;1.50;;;;;;;;;;5073740;28;20677;-89
2022/01/18 03:32:25;;;;;;;1.63;1.30;;;;;;;;;;5073874;28;20557;-88
2022/01/18 03:34:52;;;;;;;1.50;1.40;;;;;;;;;;5073727;28;20207;-88
2022/01/18 03:37:19;;;;;;;1.43;1.33;;;;;;;;;;5073495;28;20334;-89
2022/01/18 03:39:46;;;;;;;1.40;1.30;;;;;;;;;;5073452;28;20193;-89
2022/01/18 03:45:02;;;;;;;1.70;1.60;;;;;;;;;;5071262;28;20208;-88
2022/01/18 03:47:33;;;;;;;1.43;1.30;;;;;;;;;;5072868;28;20189;-88
2022/01/18 03:50:01;;;;;;;1.57;1.47;;;;;;;;;;5073121;28;20197;-87
2022/01/18 03:52:28;;;;;;;2.80;1.93;;;;;;;;;;5072780;28;20257;-87
2022/01/18 03:55:02;;;;;;;1.83;1.37;;;;;;;;;;5072881;28;20204;-87
2022/01/18 03:57:30;;;;;;;1.30;1.20;;;;;;;;;;5072609;28;20236;-88
2022/01/18 03:59:58;;;;;;;2.10;1.83;;;;;;;;;;5072880;28;20204;-88
2022/01/18 04:02:25;;;;;;;2.23;1.43;;;;;;;;;;5072550;28;20717;-87
2022/01/18 04:04:52;;;;;;;2.63;2.33;;;;;;;;;;5072951;28;20189;-87
2022/01/18 04:07:20;;;;;;;1.73;1.63;;;;;;;;;;5073159;28;20566;-88
2022/01/18 04:09:47;;;;;;;2.90;1.80;;;;;;;;;;5072647;28;20235;-87
2022/01/18 04:12:14;;;;;;;2.37;1.40;;;;;;;;;;5071862;28;20280;-87
2022/01/18 04:14:44;;;;;;;2.57;1.83;;;;;;;;;;5072276;28;20291;-87
2022/01/18 04:17:19;;;;;;;1.63;1.53;;;;;;;;;;5072726;28;20593;-87
2022/01/18 04:28:07;;;;;;;1.23;1.13;;;;;;;;;;5073009;28;20238;-90
2022/01/18 04:30:36;;;;;;;1.67;1.57;;;;;;;;;;5072934;28;20279;-89
2022/01/18 04:33:03;;;;;;;1.90;1.67;;;;;;;;;;5073054;28;20204;-89
2022/01/18 04:35:30;;;;;;;1.77;1.67;;;;;;;;;;5072281;28;20192;-88
2022/01/18 04:37:57;;;;;;;1.30;1.20;;;;;;;;;;5072735;28;20193;-88
2022/01/18 04:40:29;;;;;;;1.50;1.40;;;;;;;;;;5072550;28;20185;-90
2022/01/18 04:43:09;;;;;;;3.63;1.60;;;;;;;;;;5072811;28;20216;-90
2022/01/18 04:48:28;;;;;;;2.67;1.90;;;;;;;;;;5072838;28;20184;-88
2022/01/18 04:50:57;;;;;;;1.40;1.30;;;;;;;;;;5072958;28;20239;-91
2022/01/18 04:53:26;;;;;;;1.57;1.37;;;;;;;;;;5072790;28;20201;-93
2022/01/18 04:55:56;;;;;;;2.63;1.17;;;;;;;;;;5072463;28;20200;-91
2022/01/18 04:58:24;;;;;;;2.83;1.50;;;;;;;;;;5073049;28;20193;-90
2022/01/18 05:00:58;;;;;;;1.73;1.47;;;;;;;;;;5074352;28;20205;-88
2022/01/18 05:03:26;;;;;;;1.30;1.20;;;;;;;;;;5072661;28;20219;-88
2022/01/18 05:05:56;;;;;;;1.90;1.60;;;;;;;;;;5072352;28;20193;-87
2022/01/18 05:08:23;;;;;;;3.63;1.30;;;;;;;;;;5072665;28;20219;-87
2022/01/18 05:10:54;;;;;;;1.77;1.30;;;;;;;;;;5072368;28;20233;-88
2022/01/18 05:13:41;;;;;;;2.00;1.50;;;;;;;;;;5072351;28;20185;-87
2022/01/18 05:16:29;;;;;;;2.73;2.53;;;;;;;;;;5072297;28;20197;-87
2022/01/18 05:19:03;;;;;;;1.97;1.80;;;;;;;;;;5072388;28;20831;-87
2022/01/18 05:22:55;;;;;;;1.73;1.50;;;;;;;;;;5072287;28;20187;-88
2022/01/18 05:24:22;;;;;;;1.60;1.50;;;;;;;;;;5072999;28;20291;-87
2022/01/18 05:26:50;;;;;;;2.33;1.53;;;;;;;;;;5075779;28;20205;-88
2022/01/18 05:29:26;;;;;;;1.20;1.20;;;;;;;;;;5076254;28;20190;-87
2022/01/18 05:31:55;;;;;;;1.40;1.30;;;;;;;;;;5076107;28;20203;-86
2022/01/18 05:34:25;;;;;;;1.83;1.63;;;;;;;;;;5075771;28;20200;-88
2022/01/18 05:36:59;;;;;;;2.43;1.93;;;;;;;;;;5075709;28;20219;-87
2022/01/18 05:39:26;;;;;;;1.47;1.37;;;;;;;;;;5075632;28;20193;-88
2022/01/18 05:41:53;;;;;;;4.80;3.00;;;;;;;;;;5075807;28;20189;-87
2022/01/18 05:44:33;;;;;;;3.53;2.30;;;;;;;;;;5075636;28;20207;-88
2022/01/18 05:47:02;;;;;;;3.63;2.33;;;;;;;;;;5075759;28;20201;-87
2022/01/18 05:49:35;;;;;;;1.67;1.57;;;;;;;;;;5075324;28;20200;-87
2022/01/18 05:52:06;;;;;;;2.07;1.70;;;;;;;;;;5075472;28;20193;-86
2022/01/18 05:54:34;;;;;;;1.50;1.40;;;;;;;;;;5076051;28;20658;-86
2022/01/18 05:57:01;;;;;;;5.70;2.70;;;;;;;;;;5076426;28;20733;-86
2022/01/18 05:59:35;;;;;;;2.50;2.30;;;;;;;;;;5075148;28;20209;-86
2022/01/18 06:02:15;;;;;;;2.77;1.50;;;;;;;;;;5075097;28;20189;-86
2022/01/18 06:07:27;;;;;;;1.80;1.70;;;;;;;;;;5074915;28;20270;-85
2022/01/18 06:09:56;;;;;;;3.27;1.77;;;;;;;;;;5074416;28;20239;-86
2022/01/18 06:12:24;;;;;;;3.10;2.07;;;;;;;;;;5074656;28;20274;-86
2022/01/18 06:14:54;;;;;;;2.33;1.83;;;;;;;;;;5074719;28;20220;-86
2022/01/18 06:17:22;;;;;;;2.43;1.87;;;;;;;;;;5074942;28;20228;-86
2022/01/18 06:19:52;;;;;;;8.00;1.80;;;;;;;;;;5074623;28;20197;-86
2022/01/18 06:22:23;;;;;;;2.23;2.07;;;;;;;;;;5074576;28;20231;-86
2022/01/18 06:24:53;;;;;;;1.40;1.30;;;;;;;;;;5074994;28;20196;-86
2022/01/18 06:27:23;;;;;;;1.20;1.10;;;;;;;;;;5074510;28;20670;-86
2022/01/18 06:29:55;;;;;;;1.80;1.70;;;;;;;;;;5074515;28;20197;-86
2022/01/18 06:32:24;;;;;;;1.20;1.10;;;;;;;;;;5074773;28;20193;-87
2022/01/18 06:34:52;;;;;;;2.27;1.63;;;;;;;;;;5074381;28;20590;-87
2022/01/18 06:37:23;;;;;;;1.87;1.70;;;;;;;;;;5074301;28;20288;-86
2022/01/18 06:39:53;;;;;;;4.57;1.70;;;;;;;;;;5074629;28;20204;-88
2022/01/18 06:42:24;;;;;;;2.60;1.60;;;;;;;;;;5074500;28;20221;-87
2022/01/18 06:44:52;;;;;;;2.57;2.10;;;;;;;;;;5074887;28;20201;-89
2022/01/18 06:47:24;;;;;;;3.43;1.70;;;;;;;;;;5074720;28;20265;-89
2022/01/18 06:49:51;;;;;;;2.77;2.27;;;;;;;;;;5074856;28;20200;-88
2022/01/18 06:52:21;;;;;;;5.63;4.33;;;;;;;;;;5074537;28;20189;-88
2022/01/18 06:54:48;;;;;;;12.83;9.40;;;;;;;;;;5074338;28;20197;-87
2022/01/18 06:57:28;;;;;;;3.60;2.60;;;;;;;;;;5074641;28;20369;-87
2022/01/18 06:59:55;;;;;;;3.50;2.67;;;;;;;;;;5073953;28;20197;-87
2022/01/18 07:02:27;;;;;;;5.23;2.97;;;;;;;;;;5073721;28;20229;-86
2022/01/18 07:05:03;;;;;;;4.40;3.37;;;;;;;;;;5074086;28;20201;-86
2022/01/18 07:07:30;;;;;;;6.47;4.33;;;;;;;;;;5073666;28;20724;-86
2022/01/18 07:09:59;;;;;;;9.17;4.60;;;;;;;;;;5072295;28;20229;-86
2022/01/18 07:12:28;;;;;;;13.97;7.30;;;;;;;;;;5073734;28;20203;-86
2022/01/18 07:15:12;;;;;;;11.87;5.83;;;;;;;;;;5073837;28;20279;-86
2022/01/18 07:17:41;;;;;;;7.33;4.23;;;;;;;;;;5073621;28;20255;-86
2022/01/18 07:20:10;;;;;;;4.83;3.97;;;;;;;;;;5073412;28;20200;-89
2022/01/18 07:22:37;;;;;;;6.60;4.50;;;;;;;;;;5072864;28;20221;-86
2022/01/18 07:25:11;;;;;;;2.47;2.23;;;;;;;;;;5073401;28;20193;-86
2022/01/18 07:27:44;;;;;;;8.80;4.47;;;;;;;;;;5073558;28;20197;-86
2022/01/18 07:30:12;;;;;;;14.30;7.83;;;;;;;;;;5076148;28;20198;-86
2022/01/18 07:33:08;;;;;;;21.47;11.93;;;;;;;;;;5076985;28;20204;-87
2022/01/18 07:35:36;;;;;;;7.70;4.67;;;;;;;;;;5074461;28;20270;-87
2022/01/18 07:38:04;;;;;;;20.07;9.87;;;;;;;;;;5073107;28;20228;-86
2022/01/18 07:40:33;;;;;;;3.23;2.63;;;;;;;;;;5073135;28;20785;-86
2022/01/18 07:43:02;;;;;;;2.93;2.17;;;;;;;;;;5073224;28;20305;-87
2022/01/18 07:45:32;;;;;;;1.60;1.50;;;;;;;;;;5073473;28;20653;-87
2022/01/18 07:48:02;;;;;;;3.43;2.50;;;;;;;;;;5073062;28;20193;-88
2022/01/18 07:50:34;;;;;;;2.90;2.00;;;;;;;;;;5073156;28;20197;-87
2022/01/18 07:53:01;;;;;;;2.27;1.60;;;;;;;;;;5073104;28;20200;-87
2022/01/18 07:55:29;;;;;;;3.90;1.73;;;;;;;;;;5073215;28;20291;-88
2022/01/18 07:57:58;;;;;;;2.00;1.77;;;;;;;;;;5074024;28;20311;-88
2022/01/18 08:00:31;;;;;;;1.77;1.60;;;;;;;;;;5072933;28;20197;-88
2022/01/18 08:03:02;;;;;;;1.37;1.30;;;;;;;;;;5072959;28;20217;-88
2022/01/18 08:05:32;;;;;;;3.37;2.10;;;;;;;;;;5073325;28;20228;-89
2022/01/18 08:08:02;;;;;;;3.87;1.57;;;;;;;;;;5073000;28;20197;-87
2022/01/18 08:10:30;;;;;;;5.37;3.53;;;;;;;;;;5071180;28;20732;-87
2022/01/18 08:13:00;;;;;;;1.97;1.70;;;;;;;;;;5073089;28;20658;-88
2022/01/18 08:15:38;;;;;;;2.60;2.40;;;;;;;;;;5072665;28;20199;-87
2022/01/18 08:18:06;;;;;;;5.03;2.67;;;;;;;;;;5072750;28;20188;-87
2022/01/18 08:20:34;;;;;;;2.27;1.70;;;;;;;;;;5072692;28;20288;-87
2022/01/18 08:23:02;;;;;;;5.27;3.20;;;;;;;;;;5072597;28;20255;-86
2022/01/18 08:25:30;;;;;;;2.67;2.33;;;;;;;;;;5072681;28;20207;-87
2022/01/18 08:27:58;;;;;;;4.40;3.80;;;;;;;;;;5073206;28;20197;-87
2022/01/18 08:30:25;;;;;;;8.40;5.90;;;;;;;;;;5073007;28;20223;-87
2022/01/18 08:32:54;;;;;;;6.47;5.60;;;;;;;;;;5072821;28;20197;-87
2022/01/18 08:35:40;;;;;;;7.03;6.13;;;;;;;;;;5072839;28;20208;-87
2022/01/18 08:38:15;;;;;;;4.10;3.50;;;;;;;;;;5072449;28;20197;-87
2022/01/18 08:40:42;;;;;;;2.43;1.90;;;;;;;;;;5072351;28;20740;-86
2022/01/18 08:43:09;;;;;;;3.50;1.93;;;;;;;;;;5072349;28;20221;-87
2022/01/18 08:45:39;;;;;;;2.50;1.60;;;;;;;;;;5072362;28;20197;-87
2022/01/18 08:48:12;;;;;;;3.23;1.90;;;;;;;;;;5072821;28;20197;-87
2022/01/18 08:50:59;;;;;;;2.53;1.57;;;;;;;;;;5072276;28;20197;-87
2022/01/18 08:53:29;;;;;;;2.40;2.20;;;;;;;;;;5072458;28;20204;-87
2022/01/18 08:56:02;;;;;;;2.93;2.00;;;;;;;;;;5072332;28;20232;-87
2022/01/18 08:58:34;;;;;;;3.80;2.50;;;;;;;;;;5073043;28;20197;-87
2022/01/18 09:01:05;;;;;;;2.07;1.60;;;;;;;;;;5076653;28;20626;-87
2022/01/18 09:03:32;;;;;;;3.33;2.53;;;;;;;;;;5076184;28;20229;-87
2022/01/18 09:06:04;;;;;;;2.70;2.40;;;;;;;;;;5076505;28;20199;-87
2022/01/18 09:08:35;;;;;;;2.80;2.33;;;;;;;;;;5076299;28;20193;-87
2022/01/18 09:11:10;;;;;;;2.47;2.27;;;;;;;;;;5075732;28;20225;-87
2022/01/18 09:13:38;;;;;;;2.90;1.87;;;;;;;;;;5076265;28;20200;-86
2022/01/18 09:16:09;;;;;;;2.70;1.80;;;;;;;;;;5076288;28;20679;-86
2022/01/18 09:18:38;;;;;;;2.30;2.10;;;;;;;;;;5076185;28;20259;-87
2022/01/18 09:21:05;;;;;;;3.20;1.63;;;;;;;;;;5076364;28;20196;-87
2022/01/18 09:23:36;;;;;;;5.00;2.53;;;;;;;;;;5076231;28;20251;-87
2022/01/18 09:26:06;;;;;;;2.57;2.30;;;;;;;;;;5076602;28;20620;-88
2022/01/18 09:28:33;;;;;;;3.33;2.07;;;;;;;;;;5076605;28;20606;-87
2022/01/18 09:31:03;;;;;;;2.40;2.20;;;;;;;;;;5076071;28;20196;-87
2022/01/18 09:33:49;;;;;;;2.23;2.03;;;;;;;;;;5076108;28;20668;-87
2022/01/18 09:36:16;;;;;;;2.37;2.17;;;;;;;;;;5076450;28;20197;-87
2022/01/18 09:38:54;;;;;;;1.73;1.63;;;;;;;;;;5075604;28;20700;-87
2022/01/18 09:41:29;;;;;;;3.20;1.70;;;;;;;;;;5075719;28;20197;-87
2022/01/18 09:44:09;;;;;;;4.30;3.20;;;;;;;;;;5075779;28;20238;-87
2022/01/18 09:46:36;;;;;;;2.43;2.23;;;;;;;;;;5075953;28;20200;-88
2022/01/18 09:49:10;;;;;;;2.63;2.43;;;;;;;;;;5076157;28;20334;-87
2022/01/18 09:51:40;;;;;;;2.13;1.93;;;;;;;;;;5076068;28;20199;-87
2022/01/18 09:54:12;;;;;;;2.83;2.53;;;;;;;;;;5076683;28;20523;-87
2022/01/18 09:56:40;;;;;;;2.20;2.03;;;;;;;;;;5075440;28;20608;-87
2022/01/18 09:59:08;;;;;;;2.87;1.87;;;;;;;;;;5075646;28;20205;-87
2022/01/18 10:01:41;;;;;;;2.27;1.63;;;;;;;;;;5075470;28;20232;-87
2022/01/18 10:04:31;;;;;;;1.70;1.60;;;;;;;;;;5075575;28;20599;-87
2022/01/18 10:06:59;;;;;;;4.20;1.60;;;;;;;;;;5075087;28;20275;-87
2022/01/18 10:09:43;;;;;;;1.93;1.53;;;;;;;;;;5074892;28;20260;-87
2022/01/18 10:12:15;;;;;;;2.23;1.77;;;;;;;;;;5076109;28;20643;-88
2022/01/18 10:14:44;;;;;;;2.13;1.67;;;;;;;;;;5075682;28;20250;-88
2022/01/18 10:17:14;;;;;;;2.37;1.33;;;;;;;;;;5075825;28;20209;-87
2022/01/18 10:19:48;;;;;;;3.27;1.97;;;;;;;;;;5075407;28;20193;-87
2022/01/18 10:22:25;;;;;;;3.67;2.97;;;;;;;;;;5075325;28;20193;-88
2022/01/18 10:24:54;;;;;;;2.30;1.53;;;;;;;;;;5074995;28;20302;-87
2022/01/18 10:27:21;;;;;;;3.33;2.07;;;;;;;;;;5075310;28;20717;-87
2022/01/18 10:29:50;;;;;;;1.43;1.33;;;;;;;;;;5075095;28;20201;-87
2022/01/18 10:32:31;;;;;;;1.87;1.73;;;;;;;;;;5075086;28;20282;-88
2022/01/18 10:35:08;;;;;;;2.60;1.60;;;;;;;;;;5075797;28;20275;-88
2022/01/18 10:37:37;;;;;;;1.50;1.30;;;;;;;;;;5075413;28;20255;-87
2022/01/18 10:40:08;;;;;;;2.57;1.90;;;;;;;;;;5075617;28;20702;-88
2022/01/18 10:42:47;;;;;;;1.87;1.60;;;;;;;;;;5074905;28;20584;-87
2022/01/18 10:45:22;;;;;;;1.60;1.50;;;;;;;;;;5074612;28;20225;-87
2022/01/18 10:47:56;;;;;;;1.63;1.50;;;;;;;;;;5074756;28;20201;-87
2022/01/18 10:50:23;;;;;;;1.53;1.43;;;;;;;;;;5075027;28;20197;-88
2022/01/18 10:52:52;;;;;;;1.40;1.30;;;;;;;;;;5074656;28;20193;-87
2022/01/18 10:55:34;;;;;;;2.17;1.80;;;;;;;;;;5074418;28;20209;-88
2022/01/18 10:58:10;;;;;;;1.73;1.63;;;;;;;;;;5074715;28;20722;-87
2022/01/18 11:00:38;;;;;;;5.30;1.63;;;;;;;;;;5074543;28;20207;-88
2022/01/18 11:03:14;;;;;;;2.67;2.30;;;;;;;;;;5074649;28;20193;-86
2022/01/18 11:05:46;;;;;;;2.87;2.03;;;;;;;;;;5074149;28;20258;-86
2022/01/18 11:08:18;;;;;;;1.60;1.50;;;;;;;;;;5074260;28;20235;-88
2022/01/18 11:10:49;;;;;;;2.37;1.80;;;;;;;;;;5073008;28;20236;-88
2022/01/18 11:13:45;;;;;;;2.13;1.20;;;;;;;;;;5074078;28;20272;-88
2022/01/18 11:16:23;;;;;;;2.63;1.27;;;;;;;;;;5074228;28;20196;-88
2022/01/18 11:19:32;;;;;;;6.10;5.50;;;;;;;;;;5073853;28;20189;-88
2022/01/18 11:22:10;;;;;;;2.97;2.33;;;;;;;;;;5073386;28;20197;-88
2022/01/18 11:24:39;;;;;;;2.73;2.53;;;;;;;;;;5073563;28;20220;-87
2022/01/18 11:27:14;;;;;;;2.37;1.17;;;;;;;;;;5074393;28;20200;-88
2022/01/18 11:29:41;;;;;;;2.73;2.43;;;;;;;;;;5074170;28;20204;-88
2022/01/18 11:32:16;;;;;;;1.73;1.27;;;;;;;;;;5074046;28;20193;-88
2022/01/18 11:34:54;;;;;;;4.17;2.07;;;;;;;;;;5073736;28;20199;-88
2022/01/18 11:37:36;;;;;;;2.07;1.80;;;;;;;;;;5073417;28;20667;-87
2022/01/18 11:40:06;;;;;;;1.90;1.60;;;;;;;;;;5073341;28;20185;-87
2022/01/18 11:42:42;;;;;;;2.27;1.97;;;;;;;;;;5073235;28;20259;-88
2022/01/18 11:45:48;;;;;;;2.30;2.10;;;;;;;;;;5073152;28;20209;-88
2022/01/18 11:48:19;;;;;;;3.80;2.80;;;;;;;;;;5042287;28;20197;-87
2022/01/18 11:50:50;;;;;;;6.40;1.97;;;;;;;;;;5073537;28;20266;-87
2022/01/18 11:53:43;;;;;;;2.57;2.37;;;;;;;;;;5073003;28;20211;-87
2022/01/18 11:56:33;;;;;;;1.70;1.60;;;;;;;;;;5073515;28;20205;-89
2022/01/18 11:59:16;;;;;;;2.10;1.90;;;;;;;;;;5073561;28;20280;-87
2022/01/18 12:01:51;;;;;;;3.40;2.00;;;;;;;;;;5073010;28;20714;-88
2022/01/18 12:05:06;;;;;;;3.97;2.60;;;;;;;;;;5073152;28;20227;-88
2022/01/18 12:08:01;;;;;;;1.90;1.67;;;;;;;;;;5011723;28;20206;-88
2022/01/18 12:10:48;;;;;;;4.43;2.83;;;;;;;;;;5011273;28;20230;-88
2022/01/18 12:13:33;;;;;;;4.27;3.37;;;;;;;;;;5011747;28;20207;-88
2022/01/18 12:16:10;;;;;;;7.33;4.10;;;;;;;;;;5011936;28;20203;-88
2022/01/18 12:18:57;;;;;;;4.23;2.40;;;;;;;;;;5011176;28;20199;-88
2022/01/18 12:21:27;;;;;;;8.70;3.90;;;;;;;;;;5011334;28;20238;-87
2022/01/18 12:23:55;;;;;;;3.03;2.23;;;;;;;;;;5011445;28;20203;-87
2022/01/18 12:26:37;;;;;;;3.00;2.50;;;;;;;;;;5011145;28;20203;-88
2022/01/18 12:35:29;;;;;;;3.23;1.90;;;;;;;;;;5010866;28;20207;-88
2022/01/18 12:37:59;;;;;;;3.40;2.10;;;;;;;;;;5011566;28;20664;-87
2022/01/18 12:40:45;;;;;;;4.13;1.90;;;;;;;;;;5012071;28;20214;-88
2022/01/18 12:46:17;;;;;;;3.40;1.90;;;;;;;;;;5073099;28;20796;-88
2022/01/18 12:48:47;;;;;;;2.73;1.83;;;;;;;;;;5073032;28;20243;-88
2022/01/18 12:51:17;;;;;;;2.97;2.30;;;;;;;;;;5072979;28;20182;-87
2022/01/18 12:53:49;;;;;;;2.23;1.70;;;;;;;;;;5073633;28;20208;-87
2022/01/18 12:56:16;;;;;;;3.43;2.13;;;;;;;;;;5073431;28;20197;-89
2022/01/18 12:58:48;;;;;;;3.47;1.77;;;;;;;;;;5073573;28;20288;-88
2022/01/18 13:01:16;;;;;;;3.00;2.30;;;;;;;;;;5072758;28;20193;-87
2022/01/18 13:03:46;;;;;;;2.30;2.10;;;;;;;;;;5072418;28;20721;-87
2022/01/18 13:06:15;;;;;;;4.80;2.43;;;;;;;;;;5072788;28;20755;-87
2022/01/18 13:08:47;;;;;;;1.87;1.70;;;;;;;;;;5072844;28;20634;-87
2022/01/18 13:11:16;;;;;;;3.17;2.67;;;;;;;;;;5072121;28;20256;-87
2022/01/18 13:13:52;;;;;;;2.73;2.53;;;;;;;;;;5072029;28;20251;-87
2022/01/18 13:27:32;;;;;;;6.90;3.70;;;;;;;;;;5072563;28;20181;-88
2022/01/18 13:30:08;;;;;;;6.70;4.13;;;;;;;;;;5072524;28;20208;-87
2022/01/18 13:32:48;;;;;;;3.23;2.93;;;;;;;;;;5072450;28;20276;-88
2022/01/18 13:35:20;;;;;;;5.60;3.40;;;;;;;;;;5071902;28;20657;-87
2022/01/18 13:38:00;;;;;;;4.97;2.67;;;;;;;;;;5072005;28;20573;-87
2022/01/18 13:40:36;;;;;;;4.30;3.03;;;;;;;;;;5071643;28;20193;-87
2022/01/18 13:43:07;;;;;;;2.77;2.37;;;;;;;;;;5072256;28;20197;-88
2022/01/18 13:45:37;;;;;;;1.80;1.70;;;;;;;;;;5074791;28;20225;-87
2022/01/18 13:48:08;;;;;;;3.43;1.90;;;;;;;;;;5075353;28;20201;-87
2022/01/18 13:50:43;;;;;;;2.03;1.90;;;;;;;;;;5075542;28;20204;-87
2022/01/18 13:53:27;;;;;;;5.57;2.20;;;;;;;;;;5076349;28;20197;-88
2022/01/18 13:55:55;;;;;;;5.03;2.30;;;;;;;;;;5075288;28;20197;-87
2022/01/18 13:58:26;;;;;;;2.77;2.30;;;;;;;;;;5075548;28;20193;-87
2022/01/18 14:01:07;;;;;;;1.97;1.77;;;;;;;;;;5074996;28;20290;-87
2022/01/18 14:03:44;;;;;;;2.10;1.90;;;;;;;;;;5075139;28;20196;-87
2022/01/18 14:06:15;;;;;;;2.80;2.60;;;;;;;;;;5075120;28;20260;-88
2022/01/18 14:08:45;;;;;;;5.23;2.77;;;;;;;;;;5075124;28;20185;-87
2022/01/18 14:11:16;;;;;;;4.37;2.33;;;;;;;;;;5074834;28;20240;-87
2022/01/18 14:13:53;;;;;;;5.77;2.50;;;;;;;;;;5075527;28;20196;-88
2022/01/18 14:16:25;;;;;;;2.23;2.03;;;;;;;;;;5074844;28;20188;-87
2022/01/18 14:18:54;;;;;;;4.47;2.53;;;;;;;;;;5075333;28;20225;-88
2022/01/18 14:21:27;;;;;;;7.23;5.67;;;;;;;;;;5075321;28;20251;-88
2022/01/18 14:24:08;;;;;;;4.50;3.90;;;;;;;;;;5075100;28;20193;-87
2022/01/18 14:26:36;;;;;;;3.77;2.80;;;;;;;;;;5074804;28;20237;-88
2022/01/18 14:29:10;;;;;;;4.03;3.03;;;;;;;;;;5074773;28;20692;-87
2022/01/18 14:31:37;;;;;;;3.70;2.33;;;;;;;;;;5074841;28;20193;-88
2022/01/18 14:34:11;;;;;;;2.50;2.23;;;;;;;;;;5074945;28;20211;-87
2022/01/18 14:36:54;;;;;;;3.83;2.40;;;;;;;;;;5074465;28;20193;-89
2022/01/18 14:39:21;;;;;;;6.13;3.27;;;;;;;;;;5074589;28;20204;-88
2022/01/18 14:42:12;;;;;;;1.90;1.70;;;;;;;;;;5074462;28;20221;-87
2022/01/18 14:45:00;;;;;;;3.70;2.40;;;;;;;;;;5059185;28;20205;-88
2022/01/18 14:47:33;;;;;;;7.97;2.47;;;;;;;;;;5073941;28;20221;-88
2022/01/18 14:50:02;;;;;;;4.47;2.23;;;;;;;;;;5074476;28;20201;-88
2022/01/18 14:52:34;;;;;;;3.83;2.80;;;;;;;;;;5074430;28;20201;-87
2022/01/18 14:55:02;;;;;;;3.07;2.60;;;;;;;;;;5074426;28;20201;-87
2022/01/18 14:57:29;;;;;;;3.40;3.10;;;;;;;;;;5073622;28;20224;-87
2022/01/18 14:59:56;;;;;;;8.30;4.70;;;;;;;;;;5074126;28;20191;-87
2022/01/18 15:02:23;;;;;;;8.90;3.57;;;;;;;;;;5074118;28;20190;-88
2022/01/18 15:04:51;;;;;;;8.33;4.00;;;;;;;;;;5074211;28;20221;-88
2022/01/18 15:07:19;;;;;;;5.30;4.20;;;;;;;;;;5074012;28;20193;-87
2022/01/18 15:09:47;;;;;;;7.03;4.47;;;;;;;;;;5074015;28;20219;-87
2022/01/18 15:12:15;;;;;;;7.73;4.47;;;;;;;;;;5073606;28;20197;-87
2022/01/18 15:14:42;;;;;;;8.87;4.70;;;;;;;;;;5073737;28;20669;-86
2022/01/18 15:17:09;;;;;;;11.17;5.90;;;;;;;;;;5073528;28;20197;-87
2022/01/18 15:19:37;;;;;;;8.67;6.00;;;;;;;;;;5070216;28;20197;-86
2022/01/18 15:22:09;;;;;;;5.80;4.10;;;;;;;;;;5073555;28;20814;-86
2022/01/18 15:24:37;;;;;;;5.47;4.43;;;;;;;;;;5072972;28;20203;-87
2022/01/18 15:27:06;;;;;;;7.47;4.57;;;;;;;;;;5073260;28;20586;-86
2022/01/18 15:29:41;;;;;;;3.93;3.53;;;;;;;;;;5073296;28;20219;-87
2022/01/18 15:32:09;;;;;;;4.87;3.30;;;;;;;;;;5072770;28;20291;-87
2022/01/18 15:34:36;;;;;;;4.87;3.50;;;;;;;;;;5072931;28;20276;-87
2022/01/18 15:37:04;;;;;;;4.67;3.20;;;;;;;;;;5073505;28;20640;-87
2022/01/18 15:39:32;;;;;;;4.07;3.67;;;;;;;;;;5073264;28;20591;-87
2022/01/18 15:42:00;;;;;;;4.53;3.67;;;;;;;;;;5073357;28;20197;-87
2022/01/18 15:44:29;;;;;;;4.17;3.63;;;;;;;;;;5072995;28;20288;-86
2022/01/18 15:47:05;;;;;;;4.80;3.97;;;;;;;;;;5072677;28;20220;-88
2022/01/18 15:49:33;;;;;;;6.90;4.10;;;;;;;;;;5072926;28;20197;-86
2022/01/18 15:52:00;;;;;;;5.00;3.77;;;;;;;;;;5073232;28;20199;-88
2022/01/18 15:54:28;;;;;;;13.77;8.83;;;;;;;;;;5073114;28;20201;-88
2022/01/18 15:56:55;;;;;;;43.50;22.13;;;;;;;;;;5072617;28;20204;-85
2022/01/18 15:59:22;;;;;;;8.87;6.37;;;;;;;;;;5072557;28;20664;-88
2022/01/18 16:02:00;;;;;;;9.10;7.03;;;;;;;;;;5073334;28;20201;-87
2022/01/18 16:04:27;;;;;;;10.20;5.23;;;;;;;;;;5073000;28;20196;-86
2022/01/18 16:06:58;;;;;;;3.57;2.67;;;;;;;;;;5072177;28;20233;-88
2022/01/18 16:09:29;;;;;;;4.67;4.00;;;;;;;;;;5072931;28;20284;-87
2022/01/18 16:11:56;;;;;;;7.33;5.40;;;;;;;;;;5052696;28;20666;-88
2022/01/18 16:14:23;;;;;;;8.00;5.20;;;;;;;;;;5052899;28;20193;-88
2022/01/18 16:16:53;;;;;;;3.27;2.80;;;;;;;;;;5052697;28;20237;-89
2022/01/18 16:19:28;;;;;;;5.10;3.00;;;;;;;;;;5053316;28;20558;-88
2022/01/18 16:21:56;;;;;;;5.20;3.97;;;;;;;;;;5053181;28;20216;-89
2022/01/18 16:24:24;;;;;;;3.97;3.20;;;;;;;;;;5052963;28;20198;-89
2022/01/18 16:26:54;;;;;;;6.00;3.93;;;;;;;;;;5052427;28;20279;-87
2022/01/18 16:29:22;;;;;;;8.50;6.07;;;;;;;;;;5052124;28;20202;-86
2022/01/18 16:31:51;;;;;;;7.13;3.87;;;;;;;;;;5052393;28;20582;-85
2022/01/18 16:34:18;;;;;;;8.50;3.83;;;;;;;;;;5052002;28;20736;-86